Time;durP1;ratioP1;P1;durP2;ratioP2;P2;SDS_P1;SDS_P2;PMS_P1;PMS_P2;Temp;Humidity;BMP_temperature;BMP_pressure;BME280_temperature;BME280_humidity;BME280_pressure;Samples;Min_cycle;Max_cycle;Signal;HPM_P1;HPM_P2
2022/06/21 00:00:42;;;;;;;1.25;0.90;;;;;;;;;;4205957;28;20254;-73
2022/06/21 00:02:45;;;;;;;1.13;0.90;;;;;;;;;;4204265;28;20155;-73
2022/06/21 00:04:47;;;;;;;1.42;0.70;;;;;;;;;;4205938;28;20060;-72
2022/06/21 00:06:49;;;;;;;2.25;0.50;;;;;;;;;;4204979;28;20057;-73
2022/06/21 00:08:51;;;;;;;2.67;0.80;;;;;;;;;;4202354;28;20651;-72
2022/06/21 00:10:54;;;;;;;0.88;0.68;;;;;;;;;;4204823;28;20147;-72
2022/06/21 00:12:56;;;;;;;1.40;0.80;;;;;;;;;;4210388;28;20613;-72
2022/06/21 00:14:58;;;;;;;1.27;0.50;;;;;;;;;;4199630;28;20067;-72
2022/06/21 00:17:00;;;;;;;0.88;0.88;;;;;;;;;;4203226;28;20175;-72
2022/06/21 00:19:04;;;;;;;1.58;0.65;;;;;;;;;;4214128;28;20064;-72
2022/06/21 00:21:10;;;;;;;0.80;0.65;;;;;;;;;;4206362;28;20057;-72
2022/06/21 00:23:16;;;;;;;1.20;0.77;;;;;;;;;;4214558;28;20142;-72
2022/06/21 00:25:20;;;;;;;1.88;1.35;;;;;;;;;;4212651;28;20064;-72
2022/06/21 00:27:22;;;;;;;2.33;0.70;;;;;;;;;;4201870;28;20057;-72
2022/06/21 00:29:24;;;;;;;0.85;0.70;;;;;;;;;;4206816;28;20057;-72
2022/06/21 00:31:29;;;;;;;0.98;0.80;;;;;;;;;;4205996;28;20151;-73
2022/06/21 00:33:32;;;;;;;3.35;0.75;;;;;;;;;;4203139;28;20061;-73
2022/06/21 00:35:34;;;;;;;1.70;0.70;;;;;;;;;;4210192;28;20147;-73
2022/06/21 00:37:36;;;;;;;1.48;0.60;;;;;;;;;;4208495;28;20877;-74
2022/06/21 00:39:38;;;;;;;1.23;0.82;;;;;;;;;;4208219;28;20069;-74
2022/06/21 00:41:59;;;;;;;1.17;0.73;;;;;;;;;;4203968;28;20067;-73
2022/06/21 00:44:02;;;;;;;1.27;0.60;;;;;;;;;;4207534;28;20060;-72
2022/06/21 00:46:16;;;;;;;1.08;0.98;;;;;;;;;;4206300;28;20052;-74
2022/06/21 00:48:18;;;;;;;1.35;0.80;;;;;;;;;;4207451;28;20642;-73
2022/06/21 00:50:24;;;;;;;0.77;0.60;;;;;;;;;;4207931;28;20775;-73
2022/06/21 00:52:45;;;;;;;0.57;0.55;;;;;;;;;;4208101;28;20057;-73
2022/06/21 00:54:52;;;;;;;1.55;0.80;;;;;;;;;;4206579;28;20055;-73
2022/06/21 00:57:10;;;;;;;1.45;0.70;;;;;;;;;;4208084;28;20112;-74
2022/06/21 00:59:26;;;;;;;4.35;1.05;;;;;;;;;;4209176;28;20060;-73
2022/06/21 01:01:30;;;;;;;1.48;0.70;;;;;;;;;;4206376;28;20060;-73
2022/06/21 01:03:35;;;;;;;2.63;0.70;;;;;;;;;;4205511;28;20749;-73
2022/06/21 01:05:39;;;;;;;0.88;0.52;;;;;;;;;;4201519;28;20164;-73
2022/06/21 01:07:41;;;;;;;2.03;0.70;;;;;;;;;;4203787;28;20072;-73
2022/06/21 01:09:47;;;;;;;2.17;0.52;;;;;;;;;;4205498;28;20057;-73
2022/06/21 01:11:54;;;;;;;2.88;0.90;;;;;;;;;;4205495;28;20067;-73
2022/06/21 01:13:58;;;;;;;0.82;0.80;;;;;;;;;;4208995;28;20101;-73
2022/06/21 01:16:00;;;;;;;2.63;1.08;;;;;;;;;;4203496;28;20099;-73
2022/06/21 01:18:04;;;;;;;1.67;0.70;;;;;;;;;;4203685;28;20063;-73
2022/06/21 01:20:09;;;;;;;1.35;0.77;;;;;;;;;;4203392;28;20164;-73
2022/06/21 01:22:16;;;;;;;2.40;0.80;;;;;;;;;;4200240;28;20064;-73
2022/06/21 01:24:23;;;;;;;0.80;0.80;;;;;;;;;;4202106;28;20092;-73
2022/06/21 01:26:39;;;;;;;0.65;0.65;;;;;;;;;;4200315;28;20147;-74
2022/06/21 01:28:48;;;;;;;0.75;0.75;;;;;;;;;;4201953;28;20158;-74
2022/06/21 01:30:55;;;;;;;1.48;1.38;;;;;;;;;;4201479;28;20818;-74
2022/06/21 01:33:01;;;;;;;0.60;0.60;;;;;;;;;;4205764;28;20057;-74
2022/06/21 01:35:11;;;;;;;0.65;0.60;;;;;;;;;;4210269;28;20060;-74
2022/06/21 01:37:19;;;;;;;1.08;1.00;;;;;;;;;;4201537;28;20061;-73
2022/06/21 01:39:26;;;;;;;1.05;0.70;;;;;;;;;;4201766;28;20068;-73
2022/06/21 01:41:30;;;;;;;1.10;0.80;;;;;;;;;;4208561;28;20049;-73
2022/06/21 01:43:33;;;;;;;1.45;0.88;;;;;;;;;;4199869;28;20119;-73
2022/06/21 01:45:38;;;;;;;1.10;1.00;;;;;;;;;;4206007;28;20101;-74
2022/06/21 01:47:43;;;;;;;1.20;0.70;;;;;;;;;;4205782;28;20052;-74
2022/06/21 01:49:48;;;;;;;1.42;0.82;;;;;;;;;;4210506;28;20061;-74
2022/06/21 01:51:55;;;;;;;0.57;0.52;;;;;;;;;;4206839;28;20056;-74
2022/06/21 01:53:58;;;;;;;1.05;0.82;;;;;;;;;;4205235;28;20061;-74
2022/06/21 01:56:08;;;;;;;0.80;0.80;;;;;;;;;;4203838;28;20052;-74
2022/06/21 01:58:14;;;;;;;1.33;0.75;;;;;;;;;;4209093;28;20098;-73
2022/06/21 02:00:16;;;;;;;0.88;0.80;;;;;;;;;;4204225;28;20044;-74
2022/06/21 02:02:23;;;;;;;1.70;0.73;;;;;;;;;;4206810;28;20167;-74
2022/06/21 02:04:27;;;;;;;1.30;0.95;;;;;;;;;;4206216;28;20064;-75
2022/06/21 02:06:31;;;;;;;0.90;0.90;;;;;;;;;;4206656;28;20147;-74
2022/06/21 02:08:45;;;;;;;1.17;0.60;;;;;;;;;;4207643;28;20061;-73
2022/06/21 02:10:48;;;;;;;1.60;1.00;;;;;;;;;;4205637;28;20890;-72
2022/06/21 02:12:52;;;;;;;1.55;0.70;;;;;;;;;;4206520;28;20088;-72
2022/06/21 02:14:56;;;;;;;1.52;0.80;;;;;;;;;;4205358;28;20057;-73
2022/06/21 02:16:58;;;;;;;1.85;0.95;;;;;;;;;;4204471;28;20063;-73
2022/06/21 02:19:00;;;;;;;3.20;0.85;;;;;;;;;;4209400;28;20154;-73
2022/06/21 02:21:16;;;;;;;2.20;1.15;;;;;;;;;;4207506;28;20061;-73
2022/06/21 02:23:20;;;;;;;0.80;0.80;;;;;;;;;;4206517;28;20826;-73
2022/06/21 02:25:23;;;;;;;1.52;1.02;;;;;;;;;;4209829;28;20056;-73
2022/06/21 02:27:28;;;;;;;0.82;0.70;;;;;;;;;;4210443;28;20056;-73
2022/06/21 02:29:30;;;;;;;1.27;0.85;;;;;;;;;;4210051;28;20060;-73
2022/06/21 02:31:33;;;;;;;1.35;0.80;;;;;;;;;;4202749;28;20782;-73
2022/06/21 02:33:36;;;;;;;0.57;0.57;;;;;;;;;;4203230;28;20061;-73
2022/06/21 02:35:38;;;;;;;0.65;0.65;;;;;;;;;;4203819;28;20163;-73
2022/06/21 02:37:41;;;;;;;0.77;0.77;;;;;;;;;;4202674;28;20063;-73
2022/06/21 02:39:44;;;;;;;2.08;1.10;;;;;;;;;;4205670;28;20119;-73
2022/06/21 02:41:48;;;;;;;3.35;1.23;;;;;;;;;;4202166;28;20664;-72
2022/06/21 02:43:54;;;;;;;1.02;0.70;;;;;;;;;;4199253;28;20072;-73
2022/06/21 02:45:56;;;;;;;1.30;0.90;;;;;;;;;;4200308;28;20061;-74
2022/06/21 02:48:02;;;;;;;1.73;1.35;;;;;;;;;;4206672;28;20070;-74
2022/06/21 02:50:25;;;;;;;1.17;0.70;;;;;;;;;;4201245;28;21249;-73
2022/06/21 02:52:29;;;;;;;2.63;0.90;;;;;;;;;;4171823;28;20057;-73
2022/06/21 02:54:34;;;;;;;2.15;0.60;;;;;;;;;;4202163;28;20056;-72
2022/06/21 02:56:39;;;;;;;2.80;0.80;;;;;;;;;;4201711;28;20059;-73
2022/06/21 02:58:47;;;;;;;1.98;0.70;;;;;;;;;;4202320;28;20693;-73
2022/06/21 03:00:49;;;;;;;4.63;1.05;;;;;;;;;;4201270;28;20060;-72
2022/06/21 03:02:52;;;;;;;0.90;0.80;;;;;;;;;;4202999;28;20744;-72
2022/06/21 03:04:57;;;;;;;4.72;1.13;;;;;;;;;;4205937;28;20222;-72
2022/06/21 03:06:59;;;;;;;1.98;0.90;;;;;;;;;;4202600;28;20138;-76
2022/06/21 03:09:06;;;;;;;1.75;1.02;;;;;;;;;;4205289;28;20153;-74
2022/06/21 03:11:08;;;;;;;1.05;0.80;;;;;;;;;;4208168;28;20067;-74
2022/06/21 03:13:18;;;;;;;0.70;0.65;;;;;;;;;;4208457;28;20694;-73
2022/06/21 03:15:21;;;;;;;1.88;0.80;;;;;;;;;;4206605;28;20791;-73
2022/06/21 03:17:28;;;;;;;1.60;0.90;;;;;;;;;;4207873;28;20644;-75
2022/06/21 03:19:38;;;;;;;2.08;1.00;;;;;;;;;;4205674;28;20057;-73
2022/06/21 03:21:41;;;;;;;1.35;0.80;;;;;;;;;;4205438;28;20056;-73
2022/06/21 03:23:44;;;;;;;1.35;0.70;;;;;;;;;;4204874;28;20056;-73
2022/06/21 03:25:50;;;;;;;1.25;0.90;;;;;;;;;;4204234;28;20057;-73
2022/06/21 03:27:57;;;;;;;0.90;0.90;;;;;;;;;;4211429;28;20059;-73
2022/06/21 03:30:00;;;;;;;1.25;0.80;;;;;;;;;;4201292;28;20811;-73
2022/06/21 03:32:03;;;;;;;1.25;1.15;;;;;;;;;;4204542;28;21525;-73
2022/06/21 03:34:08;;;;;;;2.45;1.23;;;;;;;;;;4204113;28;20142;-73
2022/06/21 03:36:12;;;;;;;4.30;1.42;;;;;;;;;;4207169;28;20064;-73
2022/06/21 03:38:15;;;;;;;2.05;0.80;;;;;;;;;;4202990;28;20156;-73
2022/06/21 03:42:41;;;;;;;1.05;0.82;;;;;;;;;;4206442;28;20073;-73
2022/06/21 03:44:54;;;;;;;1.40;1.27;;;;;;;;;;4203520;28;20100;-73
2022/06/21 03:47:06;;;;;;;1.13;1.00;;;;;;;;;;4200219;28;20086;-73
2022/06/21 03:49:13;;;;;;;3.72;1.50;;;;;;;;;;4205209;28;20067;-73
2022/06/21 03:51:17;;;;;;;1.25;1.00;;;;;;;;;;4201467;28;20061;-73
2022/06/21 03:53:22;;;;;;;2.50;0.90;;;;;;;;;;4204293;28;20893;-73
2022/06/21 03:55:25;;;;;;;2.13;0.90;;;;;;;;;;4197051;28;20057;-73
2022/06/21 03:57:32;;;;;;;2.05;1.00;;;;;;;;;;4197856;28;20071;-73
2022/06/21 03:59:42;;;;;;;2.50;0.90;;;;;;;;;;4199691;28;20057;-73
2022/06/21 04:02:10;;;;;;;0.60;0.50;;;;;;;;;;4198711;28;20930;-73
2022/06/21 04:04:26;;;;;;;5.10;1.40;;;;;;;;;;4191012;28;20079;-73
2022/06/21 04:06:34;;;;;;;2.33;1.20;;;;;;;;;;4203609;28;20065;-72
2022/06/21 04:08:40;;;;;;;0.77;0.70;;;;;;;;;;4205451;28;20052;-73
2022/06/21 04:10:46;;;;;;;1.02;0.85;;;;;;;;;;4200326;28;20064;-73
2022/06/21 04:12:57;;;;;;;2.00;0.90;;;;;;;;;;4207157;28;20848;-74
2022/06/21 04:15:03;;;;;;;1.10;0.80;;;;;;;;;;4204313;28;20150;-73
2022/06/21 04:17:14;;;;;;;1.38;0.93;;;;;;;;;;4205064;28;20167;-73
2022/06/21 04:19:36;;;;;;;2.30;0.80;;;;;;;;;;4207337;28;20060;-73
2022/06/21 04:21:38;;;;;;;2.60;0.73;;;;;;;;;;4209892;28;20073;-74
2022/06/21 04:23:44;;;;;;;1.00;0.80;;;;;;;;;;4212636;28;20052;-73
2022/06/21 04:26:07;;;;;;;1.15;1.02;;;;;;;;;;4210796;28;20056;-73
2022/06/21 04:28:11;;;;;;;1.88;0.80;;;;;;;;;;4204941;28;20771;-73
2022/06/21 04:30:20;;;;;;;2.05;1.00;;;;;;;;;;4206822;28;20060;-74
2022/06/21 04:32:26;;;;;;;1.30;0.80;;;;;;;;;;4208755;28;20067;-75
2022/06/21 04:34:28;;;;;;;4.70;1.50;;;;;;;;;;4210054;28;20160;-76
2022/06/21 04:36:39;;;;;;;2.70;1.02;;;;;;;;;;4210721;28;20094;-73
2022/06/21 04:38:47;;;;;;;2.38;1.10;;;;;;;;;;4210375;28;20060;-73
2022/06/21 04:40:53;;;;;;;3.50;1.00;;;;;;;;;;4206492;28;20060;-73
2022/06/21 04:43:04;;;;;;;3.38;0.90;;;;;;;;;;4206629;28;20141;-73
2022/06/21 04:45:28;;;;;;;2.83;1.20;;;;;;;;;;4211564;28;20056;-74
2022/06/21 04:47:46;;;;;;;2.50;0.85;;;;;;;;;;4207456;28;20057;-77
2022/06/21 04:49:48;;;;;;;0.82;0.80;;;;;;;;;;4206674;28;20152;-73
2022/06/21 04:51:53;;;;;;;2.63;0.98;;;;;;;;;;4210419;28;20060;-74
2022/06/21 04:53:58;;;;;;;1.27;0.63;;;;;;;;;;4205876;28;20843;-73
2022/06/21 04:56:14;;;;;;;2.60;0.95;;;;;;;;;;4204349;28;20152;-73
2022/06/21 04:58:16;;;;;;;1.13;1.02;;;;;;;;;;4204282;28;21071;-73
2022/06/21 05:00:20;;;;;;;0.90;0.73;;;;;;;;;;4204710;28;20082;-73
2022/06/21 05:02:24;;;;;;;1.77;0.82;;;;;;;;;;4205291;28;20057;-74
2022/06/21 05:04:29;;;;;;;0.60;0.57;;;;;;;;;;4205320;28;20870;-75
2022/06/21 05:06:32;;;;;;;1.75;0.88;;;;;;;;;;4204107;28;20151;-76
2022/06/21 05:08:34;;;;;;;1.85;1.05;;;;;;;;;;4201563;28;20061;-75
2022/06/21 05:10:37;;;;;;;1.15;0.90;;;;;;;;;;4203712;28;20060;-74
2022/06/21 05:12:42;;;;;;;2.33;0.90;;;;;;;;;;4202184;28;20056;-74
2022/06/21 05:14:46;;;;;;;2.58;1.08;;;;;;;;;;4201682;28;20175;-74
2022/06/21 05:16:50;;;;;;;5.30;4.10;;;;;;;;;;4205615;28;20103;-74
2022/06/21 05:18:55;;;;;;;1.30;1.10;;;;;;;;;;4208197;28;20095;-74
2022/06/21 05:21:02;;;;;;;1.75;1.17;;;;;;;;;;4200646;28;20666;-73
2022/06/21 05:23:06;;;;;;;2.17;0.95;;;;;;;;;;4211075;28;20048;-77
2022/06/21 05:25:17;;;;;;;4.78;1.00;;;;;;;;;;4209623;28;20064;-74
2022/06/21 05:27:20;;;;;;;2.08;1.27;;;;;;;;;;4208002;28;20056;-73
2022/06/21 05:29:42;;;;;;;1.77;1.50;;;;;;;;;;4208064;28;20066;-73
2022/06/21 05:31:46;;;;;;;3.40;0.90;;;;;;;;;;4198162;28;20963;-74
2022/06/21 05:33:50;;;;;;;5.05;0.90;;;;;;;;;;4209640;28;20148;-73
2022/06/21 05:35:52;;;;;;;8.68;1.40;;;;;;;;;;4211469;28;20092;-74
2022/06/21 05:38:00;;;;;;;8.23;1.60;;;;;;;;;;4210650;28;20062;-74
2022/06/21 05:40:08;;;;;;;6.15;1.63;;;;;;;;;;4211835;28;20245;-74
2022/06/21 05:42:12;;;;;;;2.28;1.33;;;;;;;;;;4212265;28;20057;-74
2022/06/21 05:44:19;;;;;;;1.80;1.05;;;;;;;;;;4211954;28;20716;-73
2022/06/21 05:46:23;;;;;;;3.78;1.45;;;;;;;;;;4214808;28;20049;-73
2022/06/21 05:48:26;;;;;;;4.82;1.45;;;;;;;;;;4214934;28;20190;-73
2022/06/21 05:50:29;;;;;;;5.07;1.90;;;;;;;;;;4211386;28;20060;-73
2022/06/21 05:52:34;;;;;;;2.33;1.15;;;;;;;;;;4210992;28;20057;-73
2022/06/21 05:54:39;;;;;;;2.97;1.38;;;;;;;;;;4213636;28;20095;-73
2022/06/21 05:56:41;;;;;;;5.53;1.13;;;;;;;;;;4212332;28;20900;-72
2022/06/21 05:58:47;;;;;;;2.47;1.58;;;;;;;;;;4211069;28;20064;-72
2022/06/21 06:00:53;;;;;;;2.50;1.52;;;;;;;;;;4211278;28;20088;-72
2022/06/21 06:03:12;;;;;;;3.78;1.67;;;;;;;;;;4213210;28;20063;-72
2022/06/21 06:05:17;;;;;;;2.72;1.58;;;;;;;;;;4213461;28;20061;-72
2022/06/21 06:07:27;;;;;;;4.40;1.70;;;;;;;;;;4211619;28;20060;-72
2022/06/21 06:09:34;;;;;;;2.00;1.10;;;;;;;;;;4206665;28;20048;-70
2022/06/21 06:12:03;;;;;;;7.22;1.42;;;;;;;;;;4207478;28;20068;-72
2022/06/21 06:14:05;;;;;;;2.67;1.45;;;;;;;;;;4211724;28;20151;-70
2022/06/21 06:16:27;;;;;;;8.77;2.50;;;;;;;;;;4210097;28;20092;-70
2022/06/21 06:18:38;;;;;;;5.07;2.00;;;;;;;;;;4211412;28;20134;-73
2022/06/21 06:20:58;;;;;;;6.82;2.13;;;;;;;;;;4210215;28;20103;-72
2022/06/21 06:23:12;;;;;;;2.65;1.88;;;;;;;;;;4210180;28;20152;-72
2022/06/21 06:25:22;;;;;;;5.70;1.90;;;;;;;;;;4208031;28;20088;-72
2022/06/21 06:27:28;;;;;;;4.05;1.92;;;;;;;;;;4210990;28;20787;-72
2022/06/21 06:29:43;;;;;;;4.20;2.05;;;;;;;;;;4209872;28;20064;-72
2022/06/21 06:31:54;;;;;;;2.25;1.52;;;;;;;;;;4208003;28;20060;-72
2022/06/21 06:33:59;;;;;;;1.80;1.60;;;;;;;;;;4209103;28;20159;-72
2022/06/21 06:36:04;;;;;;;3.20;1.88;;;;;;;;;;4208050;28;20057;-72
2022/06/21 06:38:06;;;;;;;4.18;1.50;;;;;;;;;;4205912;28;20107;-72
2022/06/21 06:40:25;;;;;;;3.00;1.65;;;;;;;;;;4206379;28;20882;-72
2022/06/21 06:42:29;;;;;;;7.20;1.88;;;;;;;;;;4208387;28;20134;-72
2022/06/21 06:44:33;;;;;;;3.97;1.30;;;;;;;;;;4206849;28;20163;-72
2022/06/21 06:46:37;;;;;;;2.58;2.35;;;;;;;;;;4204129;28;20052;-72
2022/06/21 06:48:43;;;;;;;3.28;1.40;;;;;;;;;;4211489;28;20764;-72
2022/06/21 06:50:59;;;;;;;4.60;1.77;;;;;;;;;;4208613;28;20923;-72
2022/06/21 06:53:12;;;;;;;2.78;1.73;;;;;;;;;;4211503;28;20056;-74
2022/06/21 06:55:35;;;;;;;3.15;1.23;;;;;;;;;;4209271;28;20056;-75
2022/06/21 06:58:03;;;;;;;2.08;1.20;;;;;;;;;;4215889;28;20056;-72
2022/06/21 07:00:16;;;;;;;2.83;2.10;;;;;;;;;;4209711;28;20717;-73
2022/06/21 07:02:22;;;;;;;5.40;1.50;;;;;;;;;;4211478;28;20061;-73
2022/06/21 07:04:28;;;;;;;2.42;1.58;;;;;;;;;;4212766;28;20064;-75
2022/06/21 07:06:47;;;;;;;4.20;1.80;;;;;;;;;;4211956;28;20876;-72
2022/06/21 07:09:08;;;;;;;3.28;1.60;;;;;;;;;;4213039;28;20108;-73
2022/06/21 07:11:33;;;;;;;3.50;1.85;;;;;;;;;;4211719;28;20057;-72
2022/06/21 07:13:35;;;;;;;3.83;2.13;;;;;;;;;;4163203;28;20056;-72
2022/06/21 07:15:40;;;;;;;2.55;1.10;;;;;;;;;;4210184;28;20106;-72
2022/06/21 07:17:50;;;;;;;3.15;1.70;;;;;;;;;;4209828;28;20057;-72
2022/06/21 07:19:53;;;;;;;2.65;1.33;;;;;;;;;;4210952;28;20122;-74
2022/06/21 07:21:56;;;;;;;4.95;1.60;;;;;;;;;;4209516;28;20052;-73
2022/06/21 07:23:59;;;;;;;1.92;1.25;;;;;;;;;;4209427;28;20177;-74
2022/06/21 07:26:20;;;;;;;1.67;1.13;;;;;;;;;;4212960;28;20060;-74
2022/06/21 07:28:26;;;;;;;6.53;1.45;;;;;;;;;;4211018;28;20060;-74
2022/06/21 07:30:38;;;;;;;2.05;1.27;;;;;;;;;;4209849;28;20118;-74
2022/06/21 07:32:43;;;;;;;5.13;1.48;;;;;;;;;;4206858;28;20056;-72
2022/06/21 07:34:45;;;;;;;4.63;1.70;;;;;;;;;;4207189;28;20052;-72
2022/06/21 07:36:52;;;;;;;4.88;1.50;;;;;;;;;;4208998;28;20067;-72
2022/06/21 07:38:56;;;;;;;4.25;2.00;;;;;;;;;;4206700;28;20060;-72
2022/06/21 07:41:15;;;;;;;3.75;1.63;;;;;;;;;;4206800;28;20061;-72
2022/06/21 07:43:25;;;;;;;4.57;1.65;;;;;;;;;;4206221;28;20075;-72
2022/06/21 07:45:35;;;;;;;2.78;1.55;;;;;;;;;;4205303;28;20098;-72
2022/06/21 07:47:45;;;;;;;7.25;1.48;;;;;;;;;;4206016;28;20057;-72
2022/06/21 07:49:49;;;;;;;2.78;1.40;;;;;;;;;;4208501;28;20759;-72
2022/06/21 07:51:59;;;;;;;2.20;1.33;;;;;;;;;;4208515;28;20079;-72
2022/06/21 07:54:08;;;;;;;6.30;1.90;;;;;;;;;;4206918;28;20923;-72
2022/06/21 07:56:25;;;;;;;3.38;1.70;;;;;;;;;;4208909;28;20500;-72
2022/06/21 07:58:47;;;;;;;5.30;1.25;;;;;;;;;;4208815;28;20061;-72
2022/06/21 08:08:01;;;;;;;3.70;1.83;;;;;;;;;;4209754;28;20155;-72
2022/06/21 08:10:04;;;;;;;2.00;1.10;;;;;;;;;;4211996;28;20871;-72
2022/06/21 08:12:06;;;;;;;1.25;0.98;;;;;;;;;;4213625;28;20063;-71
2022/06/21 08:14:10;;;;;;;1.45;1.10;;;;;;;;;;4212888;28;20056;-72
2022/06/21 08:16:17;;;;;;;2.13;1.50;;;;;;;;;;4214354;28;20990;-73
2022/06/21 08:18:28;;;;;;;3.30;1.48;;;;;;;;;;4213772;28;20130;-72
2022/06/21 08:20:32;;;;;;;3.80;1.52;;;;;;;;;;4214055;28;20087;-72
2022/06/21 08:22:38;;;;;;;2.40;1.25;;;;;;;;;;4212125;28;20065;-72
2022/06/21 08:24:40;;;;;;;8.52;1.17;;;;;;;;;;4213698;28;20052;-72
2022/06/21 08:26:50;;;;;;;4.00;1.30;;;;;;;;;;4212082;28;20273;-72
2022/06/21 08:29:03;;;;;;;4.03;1.27;;;;;;;;;;4213459;28;20060;-73
2022/06/21 08:31:25;;;;;;;3.60;1.75;;;;;;;;;;4212631;28;20097;-72
2022/06/21 08:33:27;;;;;;;3.65;1.95;;;;;;;;;;4213779;28;20082;-72
2022/06/21 08:35:34;;;;;;;4.15;1.45;;;;;;;;;;4212321;28;20056;-73
2022/06/21 08:38:03;;;;;;;3.40;1.30;;;;;;;;;;4212434;28;20056;-72
2022/06/21 08:40:07;;;;;;;2.00;1.52;;;;;;;;;;4211666;28;20079;-72
2022/06/21 08:42:16;;;;;;;2.92;1.30;;;;;;;;;;4205693;28;20065;-73
2022/06/21 08:44:36;;;;;;;6.85;1.50;;;;;;;;;;4206742;28;20052;-72
2022/06/21 08:46:41;;;;;;;2.25;1.20;;;;;;;;;;4206756;28;20552;-72
2022/06/21 08:48:49;;;;;;;8.43;1.65;;;;;;;;;;4202987;28;20064;-71
2022/06/21 08:51:05;;;;;;;8.13;1.48;;;;;;;;;;4210668;28;20906;-72
2022/06/21 08:53:12;;;;;;;2.55;1.48;;;;;;;;;;4201840;28;20057;-72
2022/06/21 08:55:35;;;;;;;3.75;1.30;;;;;;;;;;4203090;28;20063;-71
2022/06/21 08:57:46;;;;;;;1.90;1.17;;;;;;;;;;4205939;28;20888;-71
2022/06/21 08:59:53;;;;;;;3.38;1.35;;;;;;;;;;4202437;28;20172;-72
2022/06/21 09:02:14;;;;;;;1.98;1.20;;;;;;;;;;4214690;28;21032;-72
2022/06/21 09:04:24;;;;;;;3.03;1.10;;;;;;;;;;4200577;28;20843;-72
2022/06/21 09:06:45;;;;;;;2.13;1.10;;;;;;;;;;4198875;28;20855;-75
2022/06/21 09:08:47;;;;;;;;;;;;;;;;;;4207098;28;20056;-75
2022/06/21 09:11:12;;;;;;;2.05;0.77;;;;;;;;;;4200549;28;43646;-75
2022/06/21 09:13:31;;;;;;;3.70;1.48;;;;;;;;;;4203387;28;20061;-72
2022/06/21 09:15:38;;;;;;;1.77;1.08;;;;;;;;;;4205958;28;20064;-72
2022/06/21 09:18:02;;;;;;;4.22;0.95;;;;;;;;;;4202934;28;21113;-72
2022/06/21 09:20:10;;;;;;;1.33;1.17;;;;;;;;;;4202243;28;20138;-73
2022/06/21 09:22:31;;;;;;;3.78;1.15;;;;;;;;;;4210454;28;20067;-72
2022/06/21 09:24:48;;;;;;;4.25;1.25;;;;;;;;;;4206973;28;20176;-72
2022/06/21 09:26:54;;;;;;;1.88;1.45;;;;;;;;;;4201826;28;20141;-73
2022/06/21 09:28:56;;;;;;;2.60;1.08;;;;;;;;;;4207365;28;20091;-73
2022/06/21 09:31:18;;;;;;;2.00;1.23;;;;;;;;;;4205081;28;21175;-72
2022/06/21 09:33:35;;;;;;;2.90;1.10;;;;;;;;;;4167195;28;20090;-72
2022/06/21 09:35:50;;;;;;;2.30;1.38;;;;;;;;;;4206131;28;20057;-72
2022/06/21 09:38:15;;;;;;;1.83;1.25;;;;;;;;;;4206547;28;20052;-72
2022/06/21 09:40:22;;;;;;;1.88;0.88;;;;;;;;;;4206135;28;20052;-73
2022/06/21 09:42:56;;;;;;;3.58;1.20;;;;;;;;;;4205926;28;20096;-73
2022/06/21 09:45:34;;;;;;;2.47;1.23;;;;;;;;;;4207378;28;20057;-72
2022/06/21 09:47:54;;;;;;;3.83;1.15;;;;;;;;;;4152641;28;20089;-72
2022/06/21 09:50:03;;;;;;;1.77;1.33;;;;;;;;;;4191876;28;20060;-73
2022/06/21 09:52:07;;;;;;;5.85;1.23;;;;;;;;;;4204561;28;20063;-72
2022/06/21 09:54:16;;;;;;;2.63;1.20;;;;;;;;;;4205028;28;20064;-73
2022/06/21 09:56:30;;;;;;;1.10;1.00;;;;;;;;;;4208288;28;20156;-72
2022/06/21 09:58:45;;;;;;;2.17;1.20;;;;;;;;;;4206771;28;20057;-73
2022/06/21 10:01:07;;;;;;;1.77;1.25;;;;;;;;;;4206212;28;20056;-72
2022/06/21 10:03:30;;;;;;;2.95;1.42;;;;;;;;;;4150182;28;20041;-73
2022/06/21 10:05:51;;;;;;;1.45;1.23;;;;;;;;;;4209464;28;20052;-73
2022/06/21 10:08:12;;;;;;;1.35;1.10;;;;;;;;;;4205409;28;20868;-72
2022/06/21 10:10:33;;;;;;;3.50;1.27;;;;;;;;;;4210004;28;20143;-73
2022/06/21 10:12:35;;;;;;;;;;;;;;;;;;4203089;28;20928;-72
2022/06/21 10:14:56;;;;;;;3.13;1.15;;;;;;;;;;4211456;28;42553;-73
2022/06/21 10:17:11;;;;;;;3.42;0.95;;;;;;;;;;4199394;28;20064;-72
2022/06/21 10:19:35;;;;;;;3.60;1.38;;;;;;;;;;4199949;28;20111;-72
2022/06/21 10:21:46;;;;;;;2.70;1.25;;;;;;;;;;4201829;28;20065;-72
2022/06/21 10:24:00;;;;;;;3.25;1.08;;;;;;;;;;4202468;28;20057;-72
2022/06/21 10:26:18;;;;;;;1.80;1.00;;;;;;;;;;4203907;28;20084;-72
2022/06/21 10:28:23;;;;;;;3.90;1.50;;;;;;;;;;4204853;28;20696;-72
2022/06/21 10:30:39;;;;;;;2.88;1.23;;;;;;;;;;4200569;28;20588;-72
2022/06/21 10:32:51;;;;;;;9.68;2.92;;;;;;;;;;4200142;28;20124;-72
2022/06/21 10:35:12;;;;;;;13.30;3.80;;;;;;;;;;4202427;28;20056;-72
2022/06/21 10:37:33;;;;;;;6.80;3.33;;;;;;;;;;4201936;28;20096;-72
2022/06/21 10:40:00;;;;;;;5.30;2.70;;;;;;;;;;4201039;28;20057;-72
2022/06/21 10:44:47;;;;;;;5.90;2.20;;;;;;;;;;4204874;28;20642;-71
2022/06/21 10:46:53;;;;;;;4.15;1.52;;;;;;;;;;4204096;28;20056;-71
2022/06/21 10:49:04;;;;;;;3.78;1.75;;;;;;;;;;4206954;28;20629;-72
2022/06/21 10:51:09;;;;;;;4.50;1.88;;;;;;;;;;4202732;28;20079;-72
2022/06/21 10:53:30;;;;;;;2.42;1.30;;;;;;;;;;4211316;28;20067;-72
2022/06/21 10:55:35;;;;;;;3.38;1.48;;;;;;;;;;4205325;28;20053;-72
2022/06/21 10:57:45;;;;;;;2.95;1.48;;;;;;;;;;4204027;28;20057;-72
2022/06/21 11:02:51;;;;;;;4.43;1.48;;;;;;;;;;4205800;28;20103;-72
2022/06/21 11:05:05;;;;;;;5.45;1.40;;;;;;;;;;4212954;28;20067;-72
2022/06/21 11:07:34;;;;;;;2.13;1.67;;;;;;;;;;4209295;28;20156;-73
2022/06/21 11:10:05;;;;;;;3.30;1.42;;;;;;;;;;4204754;28;20061;-72
2022/06/21 11:14:43;;;;;;;3.25;1.50;;;;;;;;;;4206529;28;20107;-72
2022/06/21 11:16:50;;;;;;;4.63;1.58;;;;;;;;;;4208010;28;20083;-72
2022/06/21 11:19:15;;;;;;;2.72;1.52;;;;;;;;;;4210713;28;20068;-73
2022/06/21 11:21:41;;;;;;;2.42;1.60;;;;;;;;;;4209747;28;20138;-72
2022/06/21 11:24:02;;;;;;;1.85;1.50;;;;;;;;;;4200196;28;20879;-72
2022/06/21 11:26:21;;;;;;;2.53;1.50;;;;;;;;;;4209007;28;20061;-72
2022/06/21 11:28:52;;;;;;;1.35;1.25;;;;;;;;;;4210161;28;20682;-72
2022/06/21 11:31:13;;;;;;;3.20;1.70;;;;;;;;;;4207846;28;20064;-73
2022/06/21 11:33:24;;;;;;;1.20;1.10;;;;;;;;;;4208074;28;20807;-73
2022/06/21 11:35:26;;;;;;;3.50;1.50;;;;;;;;;;4207386;28;20063;-73
2022/06/21 11:37:43;;;;;;;2.13;1.13;;;;;;;;;;4205621;28;20619;-72
2022/06/21 11:40:05;;;;;;;7.13;1.15;;;;;;;;;;4208380;28;20246;-73
2022/06/21 11:42:12;;;;;;;4.07;1.52;;;;;;;;;;4202092;28;20053;-73
2022/06/21 11:44:17;;;;;;;3.50;1.55;;;;;;;;;;4209613;28;20111;-72
2022/06/21 11:46:35;;;;;;;2.83;1.77;;;;;;;;;;4207465;28;20065;-73
2022/06/21 11:48:53;;;;;;;4.93;1.70;;;;;;;;;;4207934;28;20060;-73
2022/06/21 11:51:21;;;;;;;1.98;1.42;;;;;;;;;;4208474;28;20604;-73
2022/06/21 11:53:33;;;;;;;1.35;1.25;;;;;;;;;;4204611;28;20056;-72
2022/06/21 11:55:51;;;;;;;2.40;1.58;;;;;;;;;;4210280;28;20063;-72
2022/06/21 11:57:53;;;;;;;3.38;1.70;;;;;;;;;;4210214;28;20857;-73
2022/06/21 12:00:22;;;;;;;2.72;1.33;;;;;;;;;;4209870;28;20056;-73
2022/06/21 12:02:32;;;;;;;5.00;1.20;;;;;;;;;;4206022;28;20130;-73
2022/06/21 12:04:40;;;;;;;3.42;1.85;;;;;;;;;;4218507;28;20048;-72
2022/06/21 12:06:42;;;;;;;4.68;1.70;;;;;;;;;;4211344;28;20092;-72
2022/06/21 12:08:52;;;;;;;2.38;2.00;;;;;;;;;;4200060;28;20057;-73
2022/06/21 12:11:04;;;;;;;4.97;1.77;;;;;;;;;;4204754;28;20096;-73
2022/06/21 12:13:24;;;;;;;3.53;2.15;;;;;;;;;;4205379;28;20167;-72
2022/06/21 12:15:36;;;;;;;3.15;1.52;;;;;;;;;;4210064;28;20863;-72
2022/06/21 12:17:42;;;;;;;6.80;1.98;;;;;;;;;;4211094;28;20130;-72
2022/06/21 12:19:45;;;;;;;1.80;1.60;;;;;;;;;;4209486;28;20057;-73
2022/06/21 12:21:51;;;;;;;3.72;1.85;;;;;;;;;;4209985;28;20040;-72
2022/06/21 12:23:55;;;;;;;2.95;1.90;;;;;;;;;;4208012;28;20060;-73
2022/06/21 12:25:57;;;;;;;2.90;1.85;;;;;;;;;;4209840;28;20061;-72
2022/06/21 12:28:00;;;;;;;3.33;1.77;;;;;;;;;;4210135;28;20056;-72
2022/06/21 12:30:24;;;;;;;2.78;1.80;;;;;;;;;;4210221;28;20059;-72
2022/06/21 12:32:27;;;;;;;2.13;1.88;;;;;;;;;;4208615;28;20841;-72
2022/06/21 12:35:01;;;;;;;2.20;1.80;;;;;;;;;;4209240;28;20214;-72
2022/06/21 12:37:06;;;;;;;2.20;1.60;;;;;;;;;;4187225;28;21026;-72
2022/06/21 12:39:15;;;;;;;1.95;1.70;;;;;;;;;;4206735;28;20644;-72
2022/06/21 12:41:38;;;;;;;2.67;2.00;;;;;;;;;;4209067;28;20073;-72
2022/06/21 12:43:53;;;;;;;4.65;2.03;;;;;;;;;;4206467;28;20064;-73
2022/06/21 12:46:09;;;;;;;1.60;1.50;;;;;;;;;;4210200;28;20057;-72
2022/06/21 12:48:14;;;;;;;4.28;2.63;;;;;;;;;;4208131;28;20053;-74
2022/06/21 12:50:46;;;;;;;4.13;2.03;;;;;;;;;;4211206;28;20052;-72
2022/06/21 12:53:08;;;;;;;2.42;1.85;;;;;;;;;;4199809;28;20057;-73
2022/06/21 12:55:21;;;;;;;4.18;2.13;;;;;;;;;;4207714;28;20061;-73
2022/06/21 12:57:42;;;;;;;2.72;2.20;;;;;;;;;;4209658;28;20059;-72
2022/06/21 13:00:01;;;;;;;2.80;2.20;;;;;;;;;;4211679;28;20814;-72
2022/06/21 13:02:22;;;;;;;3.40;2.40;;;;;;;;;;4209902;28;20139;-73
2022/06/21 13:04:44;;;;;;;2.30;2.05;;;;;;;;;;4210106;28;20886;-73
2022/06/21 13:07:13;;;;;;;3.30;2.60;;;;;;;;;;4216202;28;20044;-72
2022/06/21 13:09:40;;;;;;;3.85;2.10;;;;;;;;;;4212064;28;20795;-73
2022/06/21 13:11:51;;;;;;;3.83;2.45;;;;;;;;;;4208073;28;20159;-74
2022/06/21 13:13:56;;;;;;;2.72;2.25;;;;;;;;;;4212536;28;20155;-73
2022/06/21 13:15:58;;;;;;;3.08;2.33;;;;;;;;;;4211748;28;20953;-73